Airfield :
LOGIN :

Register | Disclaimer

   EN    FR    IT 

 










Legend :    VFR   Marginal VFR   IFR   Intensive IFR   Very Intensive IFR
Visi :
Ceiling :
>= 8 km
>= 3000ft
5 to 8 km
1000 to 3000 ft
1500m to 5 km
500 to 1000 ft
800 to 1500m
200 to 500 ft
< 800m
< 200 ft
Symbols :   Thunderstorms  Fog  Heavy snow  Heavy precipitations  Wind > 20 kt
SIGMETs :     Misc.  Thunderstorms  Icing  Turbulence  Mountain Waves  Volcanic Ashes







- Airport Elevation : 16 ft
- IATA code : AAE


DABB - Annaba-Rabah Bitat

CURRENT METAR :
  • 270030Z 27006KT 9999 FEW020 SCT033 10/09 Q1018

EXPIRED METARs :
  • 270000Z 25006KT 9999 FEW020 SCT033 11/09 Q1018
  • 262330Z 25005KT 9999 SCT020 BKN033 11/09 Q1018
  • 262300Z 25007KT 9999 SCT020 BKN033 11/10 Q1018
  • 262230Z 22008KT 9999 SCT020 BKN033 11/09 Q1018
  • 262200Z 28005KT 250V310 9999 SCT020 BKN033 11/09 Q1018

TAF TAF DABB
Valid from the 27 at 00:00 until the 28 at 00:00 UTC


262300Z 2700/2724 32012KT 9999 FEW020 SCT030
PROB30
TEMPO 2700/2712 FEW015TCU
PROB30
TEMPO 2700/2708 2000 -DZ BR BKN008
PROB30
TEMPO 2710/2718 5000 -RA
No reported NOTAMs for that airfield.
1 SIGMET reported for the Alger FIR (DAAA) :
 
Embedded thunderstorms
DAAA SIGMET 3 VALID 262200/270200 DAMM
DAAA ALGER FIR EMBD TS OBS WI N3430 E00635 - N3050 E00719 - N2809 E004561- N2616 W00006 - N2613 W00251 - N3000 E00002 - N3347 E00222 - N3430 E00635 TOP FL340 MOV NE NC=



MET'MAP, your aeronautical weather chart ! - Copyright ORBIFLY December 2007 - Disclaimer

ORBIFLY MET'MAP TEAM :

Programming & Development : Alexandra Zaïnal
Concept & Development : Baudouin d'Aumeries
Co-Development & Prog : Marc-Olivier Méhu
Technical & hardware support : Manuel Goepfert

Contact : metmap@orbifly.com




SOURCES & CREDITS :

   NOAA